Terminal Aerodrome Forecast
Issued by NWS

Home | Current Version | Previous Version | Graphics & Text | Print | Product List | Glossary On
Versions: 1 2 3 4 5 6 7 8 9 10 11 12 13 14 15 16 17 18
000
FTUS43 KUNR 260135 AAB
TAFGCC
TAF AMD
KGCC 260135Z 2602/2624 36008KT P6SM BKN020 BKN100
     FM261200 01010KT 5SM -RA BR SCT005 OVC010
     FM261500 01014KT 5SM -RA BR SCT003 OVC008=

USA.gov is the U.S. government's official web portal to all federal, state and local government web resources and services.